Time;durP1;ratioP1;P1;durP2;ratioP2;P2;SDS_P1;SDS_P2;PMS_P1;PMS_P2;Temp;Humidity;BMP_temperature;BMP_pressure;BME280_temperature;BME280_humidity;BME280_pressure;Samples;Min_cycle;Max_cycle;Signal;HPM_P1;HPM_P2
2022/03/20 00:00:07;;;;;;;31.35;16.77;;;;;;;;;;6194484;23;20028;-89
2022/03/20 00:02:33;;;;;;;33.83;15.95;;;;;;;;;;6221283;23;20004;-90
2022/03/20 00:05:02;;;;;;;32.72;17.00;;;;;;;;;;6195037;23;20004;-89
2022/03/20 00:07:29;;;;;;;31.92;17.20;;;;;;;;;;6221275;23;20005;-89
2022/03/20 00:09:55;;;;;;;31.00;16.77;;;;;;;;;;6221245;23;19996;-89
2022/03/20 00:12:21;;;;;;;35.42;17.25;;;;;;;;;;6221221;23;20291;-90
2022/03/20 00:14:48;;;;;;;36.72;17.92;;;;;;;;;;6221139;23;20001;-90
2022/03/20 00:17:14;;;;;;;36.50;17.55;;;;;;;;;;6194684;23;20005;-89
2022/03/20 00:19:40;;;;;;;34.50;16.67;;;;;;;;;;6193834;23;20008;-91
2022/03/20 00:22:07;;;;;;;33.08;16.95;;;;;;;;;;6220462;23;20001;-90
2022/03/20 00:24:34;;;;;;;29.52;15.52;;;;;;;;;;6221242;23;20007;-89
2022/03/20 00:27:00;;;;;;;30.30;16.35;;;;;;;;;;6194628;23;20007;-89
2022/03/20 00:29:27;;;;;;;31.38;14.85;;;;;;;;;;6220621;23;20058;-90
2022/03/20 00:31:54;;;;;;;32.10;15.50;;;;;;;;;;6221095;23;19996;-89
2022/03/20 00:34:20;;;;;;;28.42;14.63;;;;;;;;;;6220702;23;20005;-89
2022/03/20 00:36:46;;;;;;;31.48;15.35;;;;;;;;;;6221073;23;20028;-89
2022/03/20 00:39:12;;;;;;;33.53;17.73;;;;;;;;;;6220756;23;20005;-90
2022/03/20 00:41:38;;;;;;;29.27;15.52;;;;;;;;;;6220574;23;20077;-91
2022/03/20 00:44:05;;;;;;;25.58;13.75;;;;;;;;;;6220442;23;20000;-90
2022/03/20 00:46:31;;;;;;;23.42;14.05;;;;;;;;;;6194579;23;20004;-90
2022/03/20 00:48:57;;;;;;;25.98;13.52;;;;;;;;;;6220723;23;20039;-92
2022/03/20 00:51:23;;;;;;;23.95;13.20;;;;;;;;;;6220615;23;20284;-91
2022/03/20 00:53:49;;;;;;;24.63;13.68;;;;;;;;;;6220591;23;20418;-91
2022/03/20 00:56:15;;;;;;;24.92;13.00;;;;;;;;;;6221015;23;20008;-91
2022/03/20 00:58:42;;;;;;;23.27;13.05;;;;;;;;;;6220249;23;20080;-92
2022/03/20 01:01:10;;;;;;;28.38;14.10;;;;;;;;;;6220895;23;20075;-91
2022/03/20 01:03:38;;;;;;;27.15;14.80;;;;;;;;;;6222537;23;20011;-91
2022/03/20 01:06:06;;;;;;;26.73;13.98;;;;;;;;;;6195961;23;20051;-91
2022/03/20 01:08:32;;;;;;;24.95;14.60;;;;;;;;;;6222397;23;20027;-92
2022/03/20 01:10:58;;;;;;;26.95;13.85;;;;;;;;;;6222722;23;20001;-90
2022/03/20 01:13:24;;;;;;;22.98;13.27;;;;;;;;;;6222283;23;20004;-92
2022/03/20 01:15:50;;;;;;;25.67;13.20;;;;;;;;;;6195602;23;20356;-90
2022/03/20 01:18:16;;;;;;;26.75;13.70;;;;;;;;;;6222316;23;20385;-91
2022/03/20 01:20:42;;;;;;;20.38;12.00;;;;;;;;;;6222759;23;20398;-90
2022/03/20 01:23:08;;;;;;;21.42;12.65;;;;;;;;;;6223043;23;20004;-90
2022/03/20 01:25:36;;;;;;;21.77;12.05;;;;;;;;;;6196289;23;20055;-90
2022/03/20 01:28:11;;;;;;;22.08;13.38;;;;;;;;;;6195969;23;20016;-91
2022/03/20 01:30:38;;;;;;;24.80;13.57;;;;;;;;;;6222191;23;20075;-90
2022/03/20 01:33:04;;;;;;;20.65;12.57;;;;;;;;;;6221826;23;20379;-92
2022/03/20 01:35:30;;;;;;;23.95;13.38;;;;;;;;;;6195925;23;20032;-91
2022/03/20 01:37:57;;;;;;;26.00;13.38;;;;;;;;;;6222145;23;20008;-90
2022/03/20 01:40:23;;;;;;;21.75;13.07;;;;;;;;;;6222167;23;20368;-90
2022/03/20 01:42:49;;;;;;;24.17;13.20;;;;;;;;;;6221864;23;20356;-92
2022/03/20 01:45:16;;;;;;;27.58;14.63;;;;;;;;;;6222499;23;20016;-90
2022/03/20 01:47:43;;;;;;;25.77;13.38;;;;;;;;;;6195569;23;20000;-90
2022/03/20 01:50:09;;;;;;;29.63;15.40;;;;;;;;;;6195627;23;20397;-90
2022/03/20 01:52:35;;;;;;;30.33;16.50;;;;;;;;;;6221888;23;20009;-91
2022/03/20 01:55:02;;;;;;;25.35;14.30;;;;;;;;;;6222409;23;20096;-90
2022/03/20 01:57:30;;;;;;;31.52;16.20;;;;;;;;;;6195714;23;20055;-91
2022/03/20 01:59:56;;;;;;;30.17;15.50;;;;;;;;;;6196046;23;20059;-90
2022/03/20 02:02:22;;;;;;;26.73;15.15;;;;;;;;;;6221728;23;20001;-90
2022/03/20 02:04:48;;;;;;;29.48;15.68;;;;;;;;;;6221856;23;20438;-90
2022/03/20 02:07:15;;;;;;;28.50;15.70;;;;;;;;;;6221551;23;20364;-89
2022/03/20 02:09:42;;;;;;;29.48;15.43;;;;;;;;;;6222155;23;20001;-89
2022/03/20 02:12:10;;;;;;;27.55;15.70;;;;;;;;;;6222104;23;20020;-89
2022/03/20 02:14:36;;;;;;;32.55;15.32;;;;;;;;;;6221446;23;20004;-89
2022/03/20 02:17:03;;;;;;;30.52;15.63;;;;;;;;;;6221625;23;20011;-89
2022/03/20 02:19:29;;;;;;;30.13;15.73;;;;;;;;;;6195415;23;20032;-90
2022/03/20 02:21:55;;;;;;;27.67;14.88;;;;;;;;;;6222073;23;20012;-89
2022/03/20 02:24:32;;;;;;;33.03;16.20;;;;;;;;;;6221769;23;20256;-89
2022/03/20 02:27:18;;;;;;;34.45;16.60;;;;;;;;;;6195631;23;20004;-89
2022/03/20 02:29:48;;;;;;;28.80;15.98;;;;;;;;;;6221902;23;20027;-89
2022/03/20 02:32:16;;;;;;;31.70;15.80;;;;;;;;;;6194595;23;20131;-88
2022/03/20 02:34:45;;;;;;;34.33;17.08;;;;;;;;;;6221580;23;20112;-90
2022/03/20 02:37:11;;;;;;;33.95;17.85;;;;;;;;;;6221892;23;20005;-90
2022/03/20 02:39:37;;;;;;;34.60;17.55;;;;;;;;;;6221418;23;20028;-91
2022/03/20 02:42:06;;;;;;;37.13;18.35;;;;;;;;;;6222654;23;19996;-91
2022/03/20 02:44:49;;;;;;;34.80;17.73;;;;;;;;;;6221554;23;20001;-90
2022/03/20 02:47:19;;;;;;;35.90;18.20;;;;;;;;;;6221761;23;19996;-90
2022/03/20 02:49:46;;;;;;;33.08;17.27;;;;;;;;;;6221348;23;20161;-90
2022/03/20 02:52:12;;;;;;;39.25;18.50;;;;;;;;;;6195117;23;20016;-90
2022/03/20 02:54:38;;;;;;;34.00;17.85;;;;;;;;;;6221753;23;19996;-90
2022/03/20 02:57:08;;;;;;;33.83;17.95;;;;;;;;;;6221542;23;19997;-91
2022/03/20 02:59:35;;;;;;;31.48;16.00;;;;;;;;;;6195082;23;20001;-91
2022/03/20 03:02:01;;;;;;;22.30;13.60;;;;;;;;;;6195266;23;20241;-91
2022/03/20 03:04:27;;;;;;;26.88;13.70;;;;;;;;;;6221113;23;20375;-90
2022/03/20 03:06:53;;;;;;;27.77;14.30;;;;;;;;;;6221628;23;20072;-89
2022/03/20 03:12:05;;;;;;;29.63;16.20;;;;;;;;;;6221130;23;20015;-90
2022/03/20 03:17:27;;;;;;;29.70;15.60;;;;;;;;;;6221369;23;20024;-90
2022/03/20 03:19:54;;;;;;;32.20;15.98;;;;;;;;;;6195059;23;20012;-91
2022/03/20 03:22:20;;;;;;;26.83;15.18;;;;;;;;;;6221485;23;20062;-90
2022/03/20 03:24:46;;;;;;;24.92;14.88;;;;;;;;;;6194635;23;20047;-89
2022/03/20 03:27:12;;;;;;;27.58;14.43;;;;;;;;;;6221123;23;20072;-90
2022/03/20 03:29:38;;;;;;;25.70;14.00;;;;;;;;;;6221115;23;20372;-89
2022/03/20 03:32:05;;;;;;;24.80;14.15;;;;;;;;;;6194765;23;20009;-91
2022/03/20 03:37:20;;;;;;;27.85;14.40;;;;;;;;;;6221206;23;20019;-90
2022/03/20 03:39:46;;;;;;;30.73;14.45;;;;;;;;;;6221107;23;20001;-90
2022/03/20 03:42:12;;;;;;;28.73;15.55;;;;;;;;;;6221270;23;20287;-89
2022/03/20 03:44:39;;;;;;;31.38;15.10;;;;;;;;;;6194418;23;20244;-90
2022/03/20 03:47:05;;;;;;;27.05;14.90;;;;;;;;;;6221053;23;20372;-90
2022/03/20 03:49:33;;;;;;;28.23;15.48;;;;;;;;;;6221342;22;20009;-91
2022/03/20 03:51:59;;;;;;;37.85;16.55;;;;;;;;;;6221179;23;20272;-90
2022/03/20 03:54:25;;;;;;;28.95;15.60;;;;;;;;;;6194782;23;20007;-89
2022/03/20 03:56:51;;;;;;;32.42;16.00;;;;;;;;;;6221183;23;20000;-89
2022/03/20 03:59:17;;;;;;;31.95;15.75;;;;;;;;;;6221079;23;20003;-90
2022/03/20 04:01:44;;;;;;;32.70;16.30;;;;;;;;;;6221805;23;20225;-90
2022/03/20 04:04:10;;;;;;;25.02;13.88;;;;;;;;;;6194711;23;20036;-90
2022/03/20 04:06:36;;;;;;;25.55;13.90;;;;;;;;;;6220769;23;20008;-91
2022/03/20 04:09:02;;;;;;;22.13;13.20;;;;;;;;;;6220945;23;20430;-89
2022/03/20 04:11:28;;;;;;;22.15;12.57;;;;;;;;;;6221290;23;19993;-91
2022/03/20 04:13:56;;;;;;;24.23;12.82;;;;;;;;;;6221189;23;20011;-91
2022/03/20 04:16:22;;;;;;;22.80;12.80;;;;;;;;;;6194126;23;20012;-90
2022/03/20 04:18:48;;;;;;;19.88;11.48;;;;;;;;;;6220684;23;20011;-91
2022/03/20 04:21:14;;;;;;;20.10;11.65;;;;;;;;;;6194244;23;20315;-94
2022/03/20 04:23:48;;;;;;;22.00;11.35;;;;;;;;;;6220963;23;20296;-91
2022/03/20 04:26:17;;;;;;;18.73;11.30;;;;;;;;;;6220721;23;20413;-91
2022/03/20 04:28:52;;;;;;;19.63;10.63;;;;;;;;;;6220508;23;20001;-93
2022/03/20 04:31:19;;;;;;;19.52;10.65;;;;;;;;;;6220701;23;20368;-90
2022/03/20 04:33:48;;;;;;;19.20;10.90;;;;;;;;;;6220473;23;20007;-92
2022/03/20 04:36:14;;;;;;;19.05;11.40;;;;;;;;;;6194755;23;20092;-92
2022/03/20 04:38:40;;;;;;;21.50;12.63;;;;;;;;;;6222314;23;20001;-90
2022/03/20 04:41:06;;;;;;;27.25;13.23;;;;;;;;;;6222639;23;20368;-91
2022/03/20 04:43:32;;;;;;;23.27;13.10;;;;;;;;;;6222661;23;20009;-90
2022/03/20 04:45:59;;;;;;;19.30;11.15;;;;;;;;;;6196469;23;19996;-89
2022/03/20 04:59:24;;;;;;;17.27;9.70;;;;;;;;;;6222488;23;20092;-89
2022/03/20 05:01:50;;;;;;;25.95;14.93;;;;;;;;;;6222527;23;20292;-89
2022/03/20 05:04:16;;;;;;;21.90;13.40;;;;;;;;;;6222791;23;20058;-90
2022/03/20 05:06:43;;;;;;;28.75;18.20;;;;;;;;;;6222496;23;20000;-89
2022/03/20 05:14:39;;;;;;;26.80;15.30;;;;;;;;;;6222485;23;20096;-89
2022/03/20 05:17:09;;;;;;;22.10;14.55;;;;;;;;;;6222224;23;20000;-89
2022/03/20 05:19:36;;;;;;;29.30;17.17;;;;;;;;;;6222298;22;20398;-90
2022/03/20 05:22:05;;;;;;;27.60;15.65;;;;;;;;;;6222891;23;20021;-90
2022/03/20 05:24:34;;;;;;;23.88;13.23;;;;;;;;;;6195811;23;20001;-89
2022/03/20 05:27:00;;;;;;;28.35;14.15;;;;;;;;;;6195853;23;20001;-90
2022/03/20 05:29:26;;;;;;;28.10;14.75;;;;;;;;;;6196017;23;20013;-90
2022/03/20 05:31:53;;;;;;;21.38;12.13;;;;;;;;;;6222508;23;19997;-90
2022/03/20 05:34:19;;;;;;;27.48;12.40;;;;;;;;;;6222209;23;20071;-91
2022/03/20 05:36:46;;;;;;;21.42;11.77;;;;;;;;;;6222186;23;20000;-90
2022/03/20 05:39:12;;;;;;;20.70;10.80;;;;;;;;;;6222517;23;20004;-90
2022/03/20 05:41:47;;;;;;;24.58;12.65;;;;;;;;;;6222305;23;20008;-91
2022/03/20 05:44:13;;;;;;;21.25;10.88;;;;;;;;;;6221792;23;20004;-90
2022/03/20 05:46:40;;;;;;;19.38;10.88;;;;;;;;;;6222090;23;20001;-91
2022/03/20 05:49:06;;;;;;;17.48;10.50;;;;;;;;;;6219515;23;20011;-90
2022/03/20 05:51:34;;;;;;;19.08;11.00;;;;;;;;;;6220803;23;20044;-92
2022/03/20 05:54:00;;;;;;;31.85;12.30;;;;;;;;;;6221329;23;20012;-90
2022/03/20 05:59:11;;;;;;;25.98;12.75;;;;;;;;;;6221980;23;20386;-94
2022/03/20 06:01:37;;;;;;;28.10;14.55;;;;;;;;;;6222388;23;20005;-91
2022/03/20 06:04:05;;;;;;;35.65;18.02;;;;;;;;;;6221764;23;20008;-91
2022/03/20 06:06:31;;;;;;;38.22;19.90;;;;;;;;;;6221587;23;20419;-90
2022/03/20 06:08:57;;;;;;;21.75;13.13;;;;;;;;;;6221775;23;20071;-92
2022/03/20 06:11:26;;;;;;;25.25;13.80;;;;;;;;;;6221794;23;20038;-91
2022/03/20 06:13:53;;;;;;;22.10;10.93;;;;;;;;;;6195122;23;20009;-91
2022/03/20 06:16:21;;;;;;;23.25;10.30;;;;;;;;;;6221902;23;20011;-92
2022/03/20 06:18:48;;;;;;;18.75;9.88;;;;;;;;;;6222019;22;20012;-91
2022/03/20 06:21:14;;;;;;;20.85;10.52;;;;;;;;;;6220850;23;20028;-93
2022/03/20 06:23:40;;;;;;;18.75;11.10;;;;;;;;;;6221942;23;20004;-92
2022/03/20 06:26:08;;;;;;;25.83;11.25;;;;;;;;;;6195270;23;20000;-91
2022/03/20 06:28:34;;;;;;;19.38;11.35;;;;;;;;;;6195328;23;20046;-90
2022/03/20 06:31:01;;;;;;;20.33;10.80;;;;;;;;;;6221778;23;20264;-92
2022/03/20 06:33:27;;;;;;;23.10;11.23;;;;;;;;;;6221323;23;20004;-92
2022/03/20 06:35:54;;;;;;;23.88;11.65;;;;;;;;;;6221540;23;20004;-92
2022/03/20 06:38:20;;;;;;;21.27;11.25;;;;;;;;;;6221871;23;20008;-89
2022/03/20 06:40:46;;;;;;;22.17;11.27;;;;;;;;;;6194628;23;20014;-89
2022/03/20 06:43:17;;;;;;;17.20;9.82;;;;;;;;;;6221528;23;20226;-89
2022/03/20 06:45:44;;;;;;;37.83;12.35;;;;;;;;;;6195284;23;20001;-90
2022/03/20 06:48:10;;;;;;;24.23;11.18;;;;;;;;;;6194979;23;20267;-90
2022/03/20 06:50:36;;;;;;;25.00;13.23;;;;;;;;;;6220695;23;20196;-90
2022/03/20 06:53:04;;;;;;;22.25;11.10;;;;;;;;;;6221041;23;20023;-88
2022/03/20 06:55:30;;;;;;;19.85;10.40;;;;;;;;;;6221374;23;20020;-89
2022/03/20 06:58:00;;;;;;;17.48;10.07;;;;;;;;;;6221667;23;20008;-90
2022/03/20 07:00:28;;;;;;;17.75;10.43;;;;;;;;;;6221187;23;20079;-90
2022/03/20 07:02:54;;;;;;;13.35;9.27;;;;;;;;;;6194954;23;20000;-91
2022/03/20 07:05:21;;;;;;;18.08;9.48;;;;;;;;;;6221473;23;20001;-89
2022/03/20 07:07:48;;;;;;;16.45;9.50;;;;;;;;;;6221183;23;20414;-89
2022/03/20 07:10:15;;;;;;;18.45;9.80;;;;;;;;;;6221355;23;20043;-89
2022/03/20 07:12:41;;;;;;;15.43;9.27;;;;;;;;;;6221266;23;19997;-89
2022/03/20 07:15:07;;;;;;;13.75;8.65;;;;;;;;;;6194634;23;20036;-90
2022/03/20 07:17:37;;;;;;;13.80;7.60;;;;;;;;;;6220707;23;19997;-89
2022/03/20 07:20:03;;;;;;;26.15;8.50;;;;;;;;;;6194039;23;20438;-89
2022/03/20 07:22:29;;;;;;;13.05;8.20;;;;;;;;;;6221482;23;20015;-89
2022/03/20 07:29:29;;;;;;;16.63;10.00;;;;;;;;;;6194942;23;20327;-88
2022/03/20 07:33:30;;;;;;;21.67;9.05;;;;;;;;;;6221188;23;20007;-90
2022/03/20 07:35:56;;;;;;;39.83;16.00;;;;;;;;;;6194878;23;20011;-88
2022/03/20 07:38:22;;;;;;;22.45;12.07;;;;;;;;;;6220962;23;19993;-90
2022/03/20 07:40:48;;;;;;;18.17;9.55;;;;;;;;;;6194994;23;20390;-90
2022/03/20 07:46:18;;;;;;;10.95;7.03;;;;;;;;;;6220905;23;20008;-91
2022/03/20 07:48:44;;;;;;;10.82;6.95;;;;;;;;;;6220347;23;20001;-90
2022/03/20 07:51:10;;;;;;;11.82;7.78;;;;;;;;;;6194881;23;20043;-89
2022/03/20 07:53:36;;;;;;;13.98;7.85;;;;;;;;;;6194896;23;20005;-88
2022/03/20 07:56:02;;;;;;;38.63;14.20;;;;;;;;;;6220563;23;20015;-89
2022/03/20 08:01:35;;;;;;;46.63;24.30;;;;;;;;;;6221385;23;20012;-89
2022/03/20 08:04:02;;;;;;;16.50;9.38;;;;;;;;;;6221437;23;20024;-88
2022/03/20 08:06:28;;;;;;;18.20;9.02;;;;;;;;;;6221205;23;20047;-89
2022/03/20 08:08:59;;;;;;;11.38;6.88;;;;;;;;;;6220865;23;20279;-91
2022/03/20 08:11:26;;;;;;;13.65;7.40;;;;;;;;;;6221421;23;20360;-91
2022/03/20 08:16:55;;;;;;;19.35;9.68;;;;;;;;;;6223224;23;20260;-91
2022/03/20 08:19:23;;;;;;;31.65;10.50;;;;;;;;;;6222588;23;20425;-90
2022/03/20 08:21:49;;;;;;;19.95;8.98;;;;;;;;;;6223277;23;20080;-92
2022/03/20 08:24:16;;;;;;;19.58;9.77;;;;;;;;;;6222688;23;20015;-88
2022/03/20 08:26:42;;;;;;;19.55;9.98;;;;;;;;;;6196486;23;20016;-88
2022/03/20 08:29:10;;;;;;;20.90;10.60;;;;;;;;;;6222978;23;20012;-88
2022/03/20 08:31:36;;;;;;;22.35;8.32;;;;;;;;;;6222049;23;20027;-88
2022/03/20 08:34:04;;;;;;;16.55;8.65;;;;;;;;;;6222070;23;20047;-88
2022/03/20 08:36:30;;;;;;;30.02;10.85;;;;;;;;;;6222600;23;20004;-88
2022/03/20 08:38:56;;;;;;;28.85;11.50;;;;;;;;;;6222369;23;20426;-89
2022/03/20 08:41:22;;;;;;;39.15;8.00;;;;;;;;;;6222910;23;20043;-88
2022/03/20 08:44:28;;;;;;;11.85;7.05;;;;;;;;;;6221940;23;20004;-88
2022/03/20 08:46:54;;;;;;;23.88;8.80;;;;;;;;;;6222768;23;20068;-89
2022/03/20 08:49:20;;;;;;;23.00;9.75;;;;;;;;;;6222661;23;20008;-88
2022/03/20 08:51:46;;;;;;;33.85;10.90;;;;;;;;;;6221178;23;20099;-89
2022/03/20 08:54:12;;;;;;;24.02;7.32;;;;;;;;;;6196189;23;20005;-88
2022/03/20 08:56:39;;;;;;;33.67;11.00;;;;;;;;;;6222604;23;20007;-93
2022/03/20 09:02:08;;;;;;;13.07;7.10;;;;;;;;;;6222448;23;20011;-90
2022/03/20 09:04:34;;;;;;;14.65;7.07;;;;;;;;;;6222758;23;20127;-91
2022/03/20 09:07:00;;;;;;;12.18;6.40;;;;;;;;;;6223803;23;19997;-93
2022/03/20 09:09:26;;;;;;;17.52;8.23;;;;;;;;;;6232960;23;20047;-94
2022/03/20 09:11:52;;;;;;;14.65;6.97;;;;;;;;;;6196418;23;20004;-94
2022/03/20 09:14:19;;;;;;;14.98;8.48;;;;;;;;;;6223308;23;20004;-92
2022/03/20 09:19:30;;;;;;;16.52;8.02;;;;;;;;;;6238082;23;20047;-95
2022/03/20 09:21:56;;;;;;;11.57;6.32;;;;;;;;;;6224100;23;20827;-93
2022/03/20 09:24:28;;;;;;;19.45;9.52;;;;;;;;;;6229761;23;20005;-96
2022/03/20 09:26:55;;;;;;;14.38;7.32;;;;;;;;;;6224543;23;20000;-92
2022/03/20 09:29:21;;;;;;;19.13;7.68;;;;;;;;;;6222099;23;20008;-91
2022/03/20 09:31:50;;;;;;;15.27;8.23;;;;;;;;;;6221829;23;20011;-93
2022/03/20 09:34:16;;;;;;;18.00;8.25;;;;;;;;;;6222745;23;20009;-92
2022/03/20 09:36:42;;;;;;;14.35;8.48;;;;;;;;;;6222011;23;20012;-91
2022/03/20 09:39:08;;;;;;;32.58;16.98;;;;;;;;;;6222388;23;20004;-92
2022/03/20 09:41:38;;;;;;;23.52;8.02;;;;;;;;;;6222054;23;20052;-94
2022/03/20 09:44:05;;;;;;;20.17;8.27;;;;;;;;;;6194983;23;20378;-93
2022/03/20 09:46:32;;;;;;;17.90;9.65;;;;;;;;;;6222006;23;20006;-92
2022/03/20 09:48:59;;;;;;;13.02;8.18;;;;;;;;;;6221414;23;19997;-92
2022/03/20 09:51:25;;;;;;;45.88;8.60;;;;;;;;;;6221544;23;20009;-91
2022/03/20 09:53:51;;;;;;;17.42;7.55;;;;;;;;;;6222196;23;20047;-92
2022/03/20 09:56:18;;;;;;;16.58;8.18;;;;;;;;;;6194960;23;20005;-93
2022/03/20 10:01:47;;;;;;;12.65;7.13;;;;;;;;;;6222500;23;20016;-93
2022/03/20 10:04:15;;;;;;;12.35;7.05;;;;;;;;;;6221588;23;20005;-90
2022/03/20 10:06:42;;;;;;;10.98;6.53;;;;;;;;;;6222069;23;20115;-91
2022/03/20 10:09:09;;;;;;;12.68;7.50;;;;;;;;;;6222100;23;20066;-92
2022/03/20 10:11:35;;;;;;;10.05;6.75;;;;;;;;;;6221754;23;20392;-92
2022/03/20 10:14:06;;;;;;;13.88;7.90;;;;;;;;;;6222425;23;20012;-92
2022/03/20 10:16:32;;;;;;;70.38;10.70;;;;;;;;;;6221734;23;20009;-92
2022/03/20 10:18:58;;;;;;;18.20;9.02;;;;;;;;;;6221659;23;20027;-91
2022/03/20 10:21:45;;;;;;;29.23;7.85;;;;;;;;;;6224223;23;20012;-85
2022/03/20 10:24:18;;;;;;;22.30;6.90;;;;;;;;;;6214597;23;20031;-95
2022/03/20 10:26:47;;;;;;;31.58;10.80;;;;;;;;;;6229605;23;20032;-95
2022/03/20 10:29:17;;;;;;;16.83;8.90;;;;;;;;;;6225790;23;20431;-95
2022/03/20 10:31:50;;;;;;;11.10;7.15;;;;;;;;;;6222975;23;20264;-94
2022/03/20 10:34:17;;;;;;;12.85;7.72;;;;;;;;;;6222542;23;20003;-95
2022/03/20 10:36:45;;;;;;;14.70;7.35;;;;;;;;;;6222408;23;19997;-96
2022/03/20 10:39:12;;;;;;;19.45;7.45;;;;;;;;;;6176092;23;20001;-92
2022/03/20 10:41:39;;;;;;;26.77;9.23;;;;;;;;;;6221733;23;20290;-91
2022/03/20 10:44:31;;;;;;;18.33;8.32;;;;;;;;;;6221085;23;20047;-94
2022/03/20 10:46:59;;;;;;;10.57;6.80;;;;;;;;;;6216083;23;20028;-96
2022/03/20 10:49:25;;;;;;;19.77;7.75;;;;;;;;;;6221737;23;19996;-95
2022/03/20 10:52:05;;;;;;;18.95;9.73;;;;;;;;;;6221386;23;20008;-94
2022/03/20 10:54:40;;;;;;;16.45;9.23;;;;;;;;;;6221854;23;20012;-92
2022/03/20 10:57:08;;;;;;;31.27;11.63;;;;;;;;;;6221760;23;20015;-93
2022/03/20 10:59:34;;;;;;;18.95;9.43;;;;;;;;;;6221379;23;20008;-93
2022/03/20 11:02:01;;;;;;;12.55;7.03;;;;;;;;;;6221267;23;20382;-94
2022/03/20 11:04:28;;;;;;;30.40;9.15;;;;;;;;;;6221527;23;20000;-92
2022/03/20 11:06:54;;;;;;;10.68;6.68;;;;;;;;;;6221562;23;19997;-94
2022/03/20 11:09:21;;;;;;;14.13;8.02;;;;;;;;;;6221193;23;20072;-93
2022/03/20 11:11:49;;;;;;;13.10;7.68;;;;;;;;;;6195010;23;20386;-94
2022/03/20 11:14:18;;;;;;;12.15;8.25;;;;;;;;;;6221108;23;20067;-92
2022/03/20 11:16:47;;;;;;;19.60;7.95;;;;;;;;;;6221726;23;20087;-92
2022/03/20 11:19:13;;;;;;;16.05;7.80;;;;;;;;;;6194988;23;20047;-92
2022/03/20 11:21:43;;;;;;;17.30;7.97;;;;;;;;;;6222817;23;20076;-95
2022/03/20 11:24:10;;;;;;;10.90;7.15;;;;;;;;;;6221022;23;20016;-95
2022/03/20 11:26:38;;;;;;;11.15;6.47;;;;;;;;;;6221438;23;19996;-94
2022/03/20 11:29:07;;;;;;;14.13;8.93;;;;;;;;;;6223502;23;20005;-93
2022/03/20 11:31:37;;;;;;;12.98;7.78;;;;;;;;;;6223239;23;20070;-94
2022/03/20 11:34:06;;;;;;;19.85;8.32;;;;;;;;;;6221541;23;20058;-96
2022/03/20 11:36:33;;;;;;;15.10;7.72;;;;;;;;;;6220937;23;20008;-94
2022/03/20 11:39:10;;;;;;;14.15;8.38;;;;;;;;;;6220659;23;20033;-94
2022/03/20 11:41:36;;;;;;;12.65;7.68;;;;;;;;;;6220971;23;20074;-93
2022/03/20 11:44:11;;;;;;;10.25;7.38;;;;;;;;;;6220648;23;20074;-94
2022/03/20 11:46:37;;;;;;;21.98;7.95;;;;;;;;;;6220785;23;20242;-94
2022/03/20 11:49:17;;;;;;;11.32;7.40;;;;;;;;;;6194526;23;20371;-94
2022/03/20 11:51:53;;;;;;;15.85;8.05;;;;;;;;;;6220483;23;20020;-94
2022/03/20 11:54:20;;;;;;;15.45;9.15;;;;;;;;;;6194349;23;20104;-94
2022/03/20 11:56:48;;;;;;;17.15;9.07;;;;;;;;;;6196816;23;20004;-94
2022/03/20 12:05:21;;;;;;;16.35;9.90;;;;;;;;;;6220760;23;20079;-92
2022/03/20 12:08:05;;;;;;;16.77;9.52;;;;;;;;;;6220750;23;20356;-92
2022/03/20 12:10:44;;;;;;;15.80;7.68;;;;;;;;;;6221271;23;20001;-92
2022/03/20 12:13:31;;;;;;;12.82;8.30;;;;;;;;;;6193944;23;20000;-92
2022/03/20 12:19:07;;;;;;;12.85;7.85;;;;;;;;;;6221040;23;20004;-92
2022/03/20 12:21:52;;;;;;;12.18;7.57;;;;;;;;;;6196023;23;20001;-93
2022/03/20 12:24:39;;;;;;;12.48;7.30;;;;;;;;;;6194161;23;20021;-94
2022/03/20 12:27:17;;;;;;;11.32;7.93;;;;;;;;;;6194693;23;20001;-94
2022/03/20 12:29:47;;;;;;;12.48;7.85;;;;;;;;;;6221323;23;20084;-96
2022/03/20 12:32:14;;;;;;;27.55;7.90;;;;;;;;;;6197024;23;20063;-91
2022/03/20 12:34:41;;;;;;;11.63;6.72;;;;;;;;;;6221029;23;20008;-94
2022/03/20 12:37:26;;;;;;;11.82;7.35;;;;;;;;;;6220629;23;20009;-94
2022/03/20 12:39:54;;;;;;;16.75;7.50;;;;;;;;;;6220255;23;20031;-92
2022/03/20 12:42:21;;;;;;;25.08;8.40;;;;;;;;;;6221844;23;20062;-92
2022/03/20 13:39:50;;;;;;;14.18;9.45;;;;;;;;;;6217954;22;20035;-93
2022/03/20 14:39:40;;;;;;;11.63;6.82;;;;;;;;;;6193755;23;20232;-94
2022/03/20 14:42:06;;;;;;;10.02;6.47;;;;;;;;;;6221448;23;20032;-93
2022/03/20 14:44:32;;;;;;;28.05;17.50;;;;;;;;;;6221761;23;20004;-93
2022/03/20 14:47:02;;;;;;;20.15;13.40;;;;;;;;;;6221439;23;20003;-93
2022/03/20 14:49:34;;;;;;;9.77;5.75;;;;;;;;;;6221002;23;20000;-93
2022/03/20 14:52:01;;;;;;;175.13;77.20;;;;;;;;;;6195837;23;20398;-92
2022/03/20 14:54:28;;;;;;;213.93;74.03;;;;;;;;;;6222054;23;20024;-95
2022/03/20 14:56:58;;;;;;;21.63;12.13;;;;;;;;;;6195213;23;20032;-93
2022/03/20 14:59:24;;;;;;;35.08;17.17;;;;;;;;;;6221314;23;20024;-94
2022/03/20 15:01:51;;;;;;;32.72;18.05;;;;;;;;;;6220496;23;20371;-91
2022/03/20 15:04:19;;;;;;;10.63;7.00;;;;;;;;;;6221824;23;20008;-93
2022/03/20 15:06:46;;;;;;;9.82;6.60;;;;;;;;;;6222738;23;20071;-94
2022/03/20 15:11:58;;;;;;;12.85;5.05;;;;;;;;;;6221636;23;20016;-92
2022/03/20 15:14:24;;;;;;;8.32;6.07;;;;;;;;;;6221704;23;20383;-93
2022/03/20 15:16:51;;;;;;;12.38;6.68;;;;;;;;;;6220666;23;20009;-93
2022/03/20 15:19:17;;;;;;;9.38;6.15;;;;;;;;;;6220537;23;20003;-93
2022/03/20 15:21:43;;;;;;;27.23;15.10;;;;;;;;;;6220299;23;20001;-94
2022/03/20 15:24:10;;;;;;;71.40;39.75;;;;;;;;;;6200410;23;20004;-93
2022/03/20 15:26:36;;;;;;;34.03;20.63;;;;;;;;;;6224542;23;20014;-95
2022/03/20 15:29:03;;;;;;;14.13;8.30;;;;;;;;;;6221442;23;20001;-94
2022/03/20 15:31:31;;;;;;;9.27;5.28;;;;;;;;;;6194638;23;20011;-95
2022/03/20 15:33:57;;;;;;;11.40;6.97;;;;;;;;;;6195035;23;20271;-94
2022/03/20 15:36:23;;;;;;;38.55;19.52;;;;;;;;;;6221106;23;20022;-93
2022/03/20 15:38:54;;;;;;;16.92;8.63;;;;;;;;;;6194398;23;20028;-94
2022/03/20 15:41:21;;;;;;;48.90;29.83;;;;;;;;;;6220939;23;20379;-93
2022/03/20 15:43:48;;;;;;;21.45;11.90;;;;;;;;;;6221445;23;20004;-92
2022/03/20 15:46:14;;;;;;;90.00;53.80;;;;;;;;;;6193804;23;20001;-90
2022/03/20 15:48:40;;;;;;;28.95;16.02;;;;;;;;;;6220673;23;20004;-92
2022/03/20 15:51:07;;;;;;;40.60;18.80;;;;;;;;;;6220706;23;20032;-91
2022/03/20 15:53:33;;;;;;;24.13;12.35;;;;;;;;;;6220824;23;20004;-93
2022/03/20 15:56:00;;;;;;;30.48;11.20;;;;;;;;;;6197898;23;20054;-95
2022/03/20 15:58:27;;;;;;;27.70;11.18;;;;;;;;;;6222849;23;20256;-93
2022/03/20 16:00:53;;;;;;;29.38;11.50;;;;;;;;;;6220866;23;19997;-91
2022/03/20 16:03:20;;;;;;;16.30;9.65;;;;;;;;;;6219974;23;20084;-96
2022/03/20 16:05:46;;;;;;;15.63;7.28;;;;;;;;;;6220266;23;20041;-93
2022/03/20 16:08:13;;;;;;;15.27;7.43;;;;;;;;;;6221072;23;20256;-93
2022/03/20 16:10:39;;;;;;;12.35;7.30;;;;;;;;;;6194670;23;20013;-90
2022/03/20 16:13:05;;;;;;;21.40;8.80;;;;;;;;;;6194484;23;20031;-93
2022/03/20 16:15:34;;;;;;;33.70;13.88;;;;;;;;;;6194459;23;20009;-92
2022/03/20 16:18:00;;;;;;;20.42;9.25;;;;;;;;;;6221604;23;20067;-92
2022/03/20 16:20:26;;;;;;;20.13;9.18;;;;;;;;;;6194178;23;20015;-89
2022/03/20 16:28:32;;;;;;;20.50;9.63;;;;;;;;;;6220549;23;20015;-89
2022/03/20 16:34:05;;;;;;;20.33;12.20;;;;;;;;;;6222666;23;20011;-90
2022/03/20 16:36:33;;;;;;;16.42;9.27;;;;;;;;;;6223164;23;20259;-91
2022/03/20 16:38:59;;;;;;;22.70;10.55;;;;;;;;;;6222170;23;20001;-90
2022/03/20 16:41:26;;;;;;;32.85;15.10;;;;;;;;;;6222685;23;20005;-90
2022/03/20 16:43:52;;;;;;;34.17;15.70;;;;;;;;;;6222840;23;20011;-91
2022/03/20 16:49:21;;;;;;;45.28;18.45;;;;;;;;;;6222485;23;20010;-91
2022/03/20 16:51:48;;;;;;;34.63;14.55;;;;;;;;;;6222568;23;20008;-89
2022/03/20 16:54:14;;;;;;;37.30;15.48;;;;;;;;;;6222564;23;20003;-90
2022/03/20 16:56:41;;;;;;;30.25;13.52;;;;;;;;;;6222395;23;20008;-90
2022/03/20 16:59:07;;;;;;;33.38;14.77;;;;;;;;;;6222789;23;20004;-91
2022/03/20 17:01:33;;;;;;;33.08;14.10;;;;;;;;;;6195661;23;20028;-89
2022/03/20 17:03:59;;;;;;;41.25;17.85;;;;;;;;;;6221695;23;20008;-89
2022/03/20 17:06:25;;;;;;;43.90;17.80;;;;;;;;;;6222465;23;20367;-89
2022/03/20 17:08:51;;;;;;;42.45;18.40;;;;;;;;;;6222033;23;20004;-89
2022/03/20 17:11:18;;;;;;;41.85;16.65;;;;;;;;;;6222215;23;20000;-89
2022/03/20 17:13:45;;;;;;;38.85;16.95;;;;;;;;;;6222634;23;20001;-89
2022/03/20 17:16:11;;;;;;;36.60;17.42;;;;;;;;;;6195704;23;20012;-89
2022/03/20 17:18:38;;;;;;;47.08;18.45;;;;;;;;;;6222090;23;20391;-89
2022/03/20 17:21:04;;;;;;;42.90;18.60;;;;;;;;;;6195860;23;20008;-89
2022/03/20 17:23:30;;;;;;;47.42;20.58;;;;;;;;;;6221420;23;20372;-88
2022/03/20 17:25:59;;;;;;;49.10;19.05;;;;;;;;;;6195615;23;20011;-88
2022/03/20 17:28:26;;;;;;;40.33;18.73;;;;;;;;;;6222066;23;20001;-90
2022/03/20 17:30:52;;;;;;;56.63;23.80;;;;;;;;;;6221903;23;20031;-90